sensor_id;sensor_type;location;lat;lon;timestamp;pressure;altitude;pressure_sealevel;temperature;humidity
62600;BME280;48671;48.922;2.346;2023-04-09T00:00:35;102160.44;;;12.04;51.34
62600;BME280;48671;48.922;2.346;2023-04-09T00:03:00;102162.28;;;11.99;51.80
62600;BME280;48671;48.922;2.346;2023-04-09T00:05:26;102170.88;;;12.04;51.45
62600;BME280;48671;48.922;2.346;2023-04-09T00:07:51;102158.69;;;12.03;51.41
62600;BME280;48671;48.922;2.346;2023-04-09T00:10:16;102151.78;;;12.02;51.73
62600;BME280;48671;48.922;2.346;2023-04-09T00:12:42;102153.59;;;11.99;51.75
62600;BME280;48671;48.922;2.346;2023-04-09T00:15:07;102152.69;;;12.00;51.94
62600;BME280;48671;48.922;2.346;2023-04-09T00:17:33;102147.63;;;11.93;51.62
62600;BME280;48671;48.922;2.346;2023-04-09T00:19:58;102155.31;;;12.00;51.68
62600;BME280;48671;48.922;2.346;2023-04-09T00:22:23;102155.41;;;11.95;51.92
62600;BME280;48671;48.922;2.346;2023-04-09T00:24:49;102143.41;;;11.86;51.56
62600;BME280;48671;48.922;2.346;2023-04-09T00:27:14;102139.06;;;11.87;51.96
62600;BME280;48671;48.922;2.346;2023-04-09T00:29:40;102137.34;;;11.86;51.92
62600;BME280;48671;48.922;2.346;2023-04-09T00:32:05;102143.50;;;11.82;51.85
62600;BME280;48671;48.922;2.346;2023-04-09T00:34:31;102151.34;;;11.80;52.08
62600;BME280;48671;48.922;2.346;2023-04-09T00:36:56;102146.16;;;11.79;52.28
62600;BME280;48671;48.922;2.346;2023-04-09T00:39:21;102135.88;;;11.72;52.01
62600;BME280;48671;48.922;2.346;2023-04-09T00:41:47;102133.31;;;11.69;52.06
62600;BME280;48671;48.922;2.346;2023-04-09T00:44:12;102133.38;;;11.66;52.32
62600;BME280;48671;48.922;2.346;2023-04-09T00:46:37;102129.06;;;11.64;52.62
62600;BME280;48671;48.922;2.346;2023-04-09T00:49:03;102133.44;;;11.65;52.56
62600;BME280;48671;48.922;2.346;2023-04-09T00:51:28;102125.69;;;11.60;52.60
62600;BME280;48671;48.922;2.346;2023-04-09T00:53:54;102135.34;;;11.55;53.24
62600;BME280;48671;48.922;2.346;2023-04-09T00:56:20;102128.41;;;11.54;53.21
62600;BME280;48671;48.922;2.346;2023-04-09T00:58:46;102132.66;;;11.60;52.56
62600;BME280;48671;48.922;2.346;2023-04-09T01:01:12;102123.19;;;11.56;52.99
62600;BME280;48671;48.922;2.346;2023-04-09T01:03:38;102136.16;;;11.59;53.22
62600;BME280;48671;48.922;2.346;2023-04-09T01:06:07;102133.50;;;11.60;52.88
62600;BME280;48671;48.922;2.346;2023-04-09T01:11:17;102136.88;;;11.65;53.13
62600;BME280;48671;48.922;2.346;2023-04-09T01:14:05;102122.94;;;11.66;52.99
62600;BME280;48671;48.922;2.346;2023-04-09T01:16:33;102127.28;;;11.67;52.94
62600;BME280;48671;48.922;2.346;2023-04-09T01:19:09;102133.31;;;11.71;53.07
62600;BME280;48671;48.922;2.346;2023-04-09T01:21:37;102124.75;;;11.64;52.95
62600;BME280;48671;48.922;2.346;2023-04-09T01:27:05;102127.44;;;11.60;53.23
62600;BME280;48671;48.922;2.346;2023-04-09T01:29:38;102131.91;;;11.53;53.34
62600;BME280;48671;48.922;2.346;2023-04-09T01:32:06;102127.56;;;11.54;53.54
62600;BME280;48671;48.922;2.346;2023-04-09T01:34:33;102120.69;;;11.51;53.82
62600;BME280;48671;48.922;2.346;2023-04-09T01:37:01;102122.31;;;11.55;53.96
62600;BME280;48671;48.922;2.346;2023-04-09T01:39:27;102119.72;;;11.54;53.28
62600;BME280;48671;48.922;2.346;2023-04-09T01:41:54;102122.25;;;11.58;53.51
62600;BME280;48671;48.922;2.346;2023-04-09T01:44:21;102113.59;;;11.56;53.48
62600;BME280;48671;48.922;2.346;2023-04-09T01:46:48;102119.78;;;11.52;53.18
62600;BME280;48671;48.922;2.346;2023-04-09T01:49:15;102119.97;;;11.43;53.50
62600;BME280;48671;48.922;2.346;2023-04-09T01:51:41;102111.47;;;11.33;53.92
62600;BME280;48671;48.922;2.346;2023-04-09T01:54:07;102115.75;;;11.36;54.06
62600;BME280;48671;48.922;2.346;2023-04-09T01:56:43;102124.53;;;11.32;53.83
62600;BME280;48671;48.922;2.346;2023-04-09T01:59:08;102121.19;;;11.25;54.10
62600;BME280;48671;48.922;2.346;2023-04-09T02:01:44;102102.16;;;11.20;54.14
62600;BME280;48671;48.922;2.346;2023-04-09T02:04:32;102111.69;;;11.21;54.36
62600;BME280;48671;48.922;2.346;2023-04-09T02:07:04;102103.00;;;11.20;54.39
62600;BME280;48671;48.922;2.346;2023-04-09T02:09:31;102102.00;;;11.28;54.19
62600;BME280;48671;48.922;2.346;2023-04-09T02:12:00;102097.81;;;11.20;54.12
62600;BME280;48671;48.922;2.346;2023-04-09T02:14:27;102103.81;;;11.25;54.27
62600;BME280;48671;48.922;2.346;2023-04-09T02:16:55;102101.31;;;11.19;54.18
62600;BME280;48671;48.922;2.346;2023-04-09T02:19:20;102098.72;;;11.18;53.84
62600;BME280;48671;48.922;2.346;2023-04-09T02:21:45;102091.06;;;11.10;54.43
62600;BME280;48671;48.922;2.346;2023-04-09T02:24:11;102094.50;;;11.12;54.22
62600;BME280;48671;48.922;2.346;2023-04-09T02:26:36;102097.06;;;11.14;54.52
62600;BME280;48671;48.922;2.346;2023-04-09T02:29:01;102088.44;;;11.12;54.79
62600;BME280;48671;48.922;2.346;2023-04-09T02:31:27;102075.53;;;11.04;54.28
62600;BME280;48671;48.922;2.346;2023-04-09T02:33:52;102079.78;;;11.10;54.82
62600;BME280;48671;48.922;2.346;2023-04-09T02:36:18;102063.44;;;11.01;54.50
62600;BME280;48671;48.922;2.346;2023-04-09T02:38:43;102078.13;;;11.06;54.79
62600;BME280;48671;48.922;2.346;2023-04-09T02:41:09;102080.69;;;11.07;54.61
62600;BME280;48671;48.922;2.346;2023-04-09T02:43:35;102072.25;;;10.96;54.47
62600;BME280;48671;48.922;2.346;2023-04-09T02:46:00;102075.81;;;10.90;54.72
62600;BME280;48671;48.922;2.346;2023-04-09T02:48:25;102077.50;;;10.93;55.00
62600;BME280;48671;48.922;2.346;2023-04-09T02:50:51;102075.81;;;10.90;55.17
62600;BME280;48671;48.922;2.346;2023-04-09T02:53:16;102073.19;;;10.90;55.08
62600;BME280;48671;48.922;2.346;2023-04-09T02:55:41;102071.56;;;10.85;54.92
62600;BME280;48671;48.922;2.346;2023-04-09T02:58:07;102064.75;;;10.77;54.85
62600;BME280;48671;48.922;2.346;2023-04-09T03:00:32;102068.25;;;10.75;55.21
62600;BME280;48671;48.922;2.346;2023-04-09T03:02:58;102080.31;;;10.81;55.04
62600;BME280;48671;48.922;2.346;2023-04-09T03:05:23;102067.41;;;10.74;55.36
62600;BME280;48671;48.922;2.346;2023-04-09T03:07:48;102070.06;;;10.71;55.49
62600;BME280;48671;48.922;2.346;2023-04-09T03:10:14;102069.25;;;10.68;55.42
62600;BME280;48671;48.922;2.346;2023-04-09T03:12:39;102066.69;;;10.66;55.56
62600;BME280;48671;48.922;2.346;2023-04-09T03:15:05;102039.22;;;10.50;55.71
62600;BME280;48671;48.922;2.346;2023-04-09T03:17:31;102055.53;;;10.60;55.81
62600;BME280;48671;48.922;2.346;2023-04-09T03:19:56;102052.88;;;10.63;55.55
62600;BME280;48671;48.922;2.346;2023-04-09T03:22:22;102061.50;;;10.66;55.92
62600;BME280;48671;48.922;2.346;2023-04-09T03:24:47;102047.75;;;10.58;55.77
62600;BME280;48671;48.922;2.346;2023-04-09T03:27:12;102048.66;;;10.55;55.50
62600;BME280;48671;48.922;2.346;2023-04-09T03:29:38;102043.53;;;10.49;55.81
62600;BME280;48671;48.922;2.346;2023-04-09T03:32:03;102053.03;;;10.52;55.90
62600;BME280;48671;48.922;2.346;2023-04-09T03:34:28;102059.84;;;10.61;55.77
62600;BME280;48671;48.922;2.346;2023-04-09T03:36:54;102052.88;;;10.63;55.96
62600;BME280;48671;48.922;2.346;2023-04-09T03:39:19;102055.59;;;10.57;55.65
62600;BME280;48671;48.922;2.346;2023-04-09T03:41:45;102053.03;;;10.52;55.87
62600;BME280;48671;48.922;2.346;2023-04-09T03:44:10;102060.91;;;10.49;55.91
62600;BME280;48671;48.922;2.346;2023-04-09T03:46:35;102050.59;;;10.43;55.96
62600;BME280;48671;48.922;2.346;2023-04-09T03:49:01;102038.53;;;10.39;56.04
62600;BME280;48671;48.922;2.346;2023-04-09T03:51:26;102044.63;;;10.38;55.94
62600;BME280;48671;48.922;2.346;2023-04-09T03:53:52;102049.88;;;10.35;56.13
62600;BME280;48671;48.922;2.346;2023-04-09T03:56:17;102043.06;;;10.26;56.62
62600;BME280;48671;48.922;2.346;2023-04-09T03:58:43;102040.47;;;10.27;56.80
62600;BME280;48671;48.922;2.346;2023-04-09T04:01:08;102041.31;;;10.28;56.53
62600;BME280;48671;48.922;2.346;2023-04-09T04:03:33;102048.13;;;10.37;56.43
62600;BME280;48671;48.922;2.346;2023-04-09T04:06:00;102042.97;;;10.34;56.51
62600;BME280;48671;48.922;2.346;2023-04-09T04:08:27;102041.22;;;10.32;56.47
62600;BME280;48671;48.922;2.346;2023-04-09T04:10:52;102022.31;;;10.21;56.43
62600;BME280;48671;48.922;2.346;2023-04-09T04:13:17;102037.06;;;10.19;56.36
62600;BME280;48671;48.922;2.346;2023-04-09T04:15:43;102027.75;;;10.07;56.45
62600;BME280;48671;48.922;2.346;2023-04-09T04:18:09;102034.59;;;10.12;56.52
62600;BME280;48671;48.922;2.346;2023-04-09T04:20:35;102029.38;;;10.13;56.84
62600;BME280;48671;48.922;2.346;2023-04-09T04:23:01;102026.84;;;10.08;56.88
62600;BME280;48671;48.922;2.346;2023-04-09T04:25:27;102027.84;;;10.01;56.93
62600;BME280;48671;48.922;2.346;2023-04-09T04:27:52;102025.28;;;9.97;56.91
62600;BME280;48671;48.922;2.346;2023-04-09T04:30:19;102039.06;;;10.03;56.80
62600;BME280;48671;48.922;2.346;2023-04-09T04:32:45;102048.59;;;10.03;56.87
62600;BME280;48671;48.922;2.346;2023-04-09T04:35:11;102036.56;;;9.96;56.94
62600;BME280;48671;48.922;2.346;2023-04-09T04:37:36;102033.97;;;9.97;57.49
62600;BME280;48671;48.922;2.346;2023-04-09T04:40:01;102022.91;;;9.84;57.23
62600;BME280;48671;48.922;2.346;2023-04-09T04:42:28;102038.38;;;9.91;56.88
62600;BME280;48671;48.922;2.346;2023-04-09T04:44:53;102034.09;;;9.87;56.92
62600;BME280;48671;48.922;2.346;2023-04-09T04:47:19;102046.28;;;9.84;57.65
62600;BME280;48671;48.922;2.346;2023-04-09T04:49:44;102030.88;;;9.71;57.74
62600;BME280;48671;48.922;2.346;2023-04-09T04:52:09;102042.97;;;9.75;57.70
62600;BME280;48671;48.922;2.346;2023-04-09T04:54:35;102053.44;;;9.69;57.44
62600;BME280;48671;48.922;2.346;2023-04-09T04:57:00;102065.53;;;9.70;57.71
62600;BME280;48671;48.922;2.346;2023-04-09T04:59:26;102058.63;;;9.67;57.54
62600;BME280;48671;48.922;2.346;2023-04-09T05:01:51;102046.66;;;9.57;57.65
62600;BME280;48671;48.922;2.346;2023-04-09T05:04:18;102058.63;;;9.69;57.58
62600;BME280;48671;48.922;2.346;2023-04-09T05:06:43;102060.38;;;9.68;57.80
62600;BME280;48671;48.922;2.346;2023-04-09T05:09:08;102060.34;;;9.71;57.75
62600;BME280;48671;48.922;2.346;2023-04-09T05:11:34;102062.06;;;9.71;57.65
62600;BME280;48671;48.922;2.346;2023-04-09T05:13:59;102056.16;;;9.59;57.91
62600;BME280;48671;48.922;2.346;2023-04-09T05:16:25;102057.97;;;9.53;58.19
62600;BME280;48671;48.922;2.346;2023-04-09T05:18:51;102077.88;;;9.55;58.22
62600;BME280;48671;48.922;2.346;2023-04-09T05:21:16;102067.59;;;9.46;57.93
62600;BME280;48671;48.922;2.346;2023-04-09T05:23:41;102062.50;;;9.38;58.61
62600;BME280;48671;48.922;2.346;2023-04-09T05:26:07;102067.53;;;9.49;58.45
62600;BME280;48671;48.922;2.346;2023-04-09T05:28:32;102071.78;;;9.56;58.46
62600;BME280;48671;48.922;2.346;2023-04-09T05:30:58;102053.75;;;9.46;58.48
62600;BME280;48671;48.922;2.346;2023-04-09T05:33:23;102078.69;;;9.57;58.17
62600;BME280;48671;48.922;2.346;2023-04-09T05:35:48;102071.81;;;9.53;58.34
62600;BME280;48671;48.922;2.346;2023-04-09T05:38:14;102067.59;;;9.46;58.54
62600;BME280;48671;48.922;2.346;2023-04-09T05:40:39;102069.28;;;9.49;58.68
62600;BME280;48671;48.922;2.346;2023-04-09T05:43:06;102086.50;;;9.56;58.26
62600;BME280;48671;48.922;2.346;2023-04-09T05:45:31;102085.63;;;9.57;58.60
62600;BME280;48671;48.922;2.346;2023-04-09T05:47:57;102084.78;;;9.56;58.77
62600;BME280;48671;48.922;2.346;2023-04-09T05:50:22;102085.63;;;9.58;58.10
62600;BME280;48671;48.922;2.346;2023-04-09T05:52:47;102076.19;;;9.50;58.57
62600;BME280;48671;48.922;2.346;2023-04-09T05:55:13;102077.88;;;9.55;58.48
62600;BME280;48671;48.922;2.346;2023-04-09T05:57:38;102088.16;;;9.65;58.74
62600;BME280;48671;48.922;2.346;2023-04-09T06:00:04;102076.88;;;9.64;58.62
62600;BME280;48671;48.922;2.346;2023-04-09T06:02:30;102074.25;;;9.66;58.69
62600;BME280;48671;48.922;2.346;2023-04-09T06:04:55;102086.38;;;9.68;58.51
62600;BME280;48671;48.922;2.346;2023-04-09T06:07:20;102094.00;;;9.77;58.41
62600;BME280;48671;48.922;2.346;2023-04-09T06:09:46;102090.53;;;9.80;58.34
62600;BME280;48671;48.922;2.346;2023-04-09T06:12:12;102092.28;;;9.79;58.33
62600;BME280;48671;48.922;2.346;2023-04-09T06:14:37;102093.28;;;9.69;58.73
62600;BME280;48671;48.922;2.346;2023-04-09T06:17:03;102098.47;;;9.68;58.70
62600;BME280;48671;48.922;2.346;2023-04-09T06:19:28;102086.47;;;9.57;58.89
62600;BME280;48671;48.922;2.346;2023-04-09T06:21:53;102096.84;;;9.62;58.80
62600;BME280;48671;48.922;2.346;2023-04-09T06:24:19;102088.25;;;9.55;59.18
62600;BME280;48671;48.922;2.346;2023-04-09T06:26:44;102098.50;;;9.66;59.12
62600;BME280;48671;48.922;2.346;2023-04-09T06:29:10;102105.34;;;9.73;58.89
62600;BME280;48671;48.922;2.346;2023-04-09T06:31:35;102102.78;;;9.70;59.01
62600;BME280;48671;48.922;2.346;2023-04-09T06:34:00;102107.00;;;9.77;59.11
62600;BME280;48671;48.922;2.346;2023-04-09T06:36:26;102100.00;;;9.84;59.06
62600;BME280;48671;48.922;2.346;2023-04-09T06:38:52;102099.91;;;9.92;59.30
62600;BME280;48671;48.922;2.346;2023-04-09T06:41:22;102113.59;;;10.04;58.82
62600;BME280;48671;48.922;2.346;2023-04-09T06:43:48;102097.09;;;10.05;58.91
62600;BME280;48671;48.922;2.346;2023-04-09T06:46:13;102095.47;;;9.98;58.77
62600;BME280;48671;48.922;2.346;2023-04-09T06:48:41;102089.34;;;10.04;58.31
62600;BME280;48671;48.922;2.346;2023-04-09T06:51:08;102104.78;;;10.15;58.33
62600;BME280;48671;48.922;2.346;2023-04-09T06:53:34;102096.94;;;10.16;58.62
62600;BME280;48671;48.922;2.346;2023-04-09T06:55:59;102086.59;;;10.13;58.43
62600;BME280;48671;48.922;2.346;2023-04-09T06:58:25;102102.06;;;10.24;59.08
62600;BME280;48671;48.922;2.346;2023-04-09T07:00:53;102087.34;;;10.20;58.60
62600;BME280;48671;48.922;2.346;2023-04-09T07:03:19;102100.06;;;10.41;58.25
62600;BME280;48671;48.922;2.346;2023-04-09T07:05:45;102091.38;;;10.44;58.06
62600;BME280;48671;48.922;2.346;2023-04-09T07:08:10;102096.47;;;10.48;58.34
62600;BME280;48671;48.922;2.346;2023-04-09T07:10:36;102098.88;;;10.61;57.95
62600;BME280;48671;48.922;2.346;2023-04-09T07:13:02;102100.50;;;10.69;57.93
62600;BME280;48671;48.922;2.346;2023-04-09T07:15:27;102096.09;;;10.73;58.38
62600;BME280;48671;48.922;2.346;2023-04-09T07:17:52;102096.84;;;10.80;58.00
62600;BME280;48671;48.922;2.346;2023-04-09T07:20:17;102095.09;;;10.78;57.61
62600;BME280;48671;48.922;2.346;2023-04-09T07:22:43;102103.66;;;10.87;57.65
62600;BME280;48671;48.922;2.346;2023-04-09T07:25:08;102101.69;;;10.98;57.48
62600;BME280;48671;48.922;2.346;2023-04-09T07:27:34;102096.28;;;11.10;57.55
62600;BME280;48671;48.922;2.346;2023-04-09T07:29:59;102097.88;;;11.17;57.73
62600;BME280;48671;48.922;2.346;2023-04-09T07:32:26;102099.66;;;11.15;57.54
62600;BME280;48671;48.922;2.346;2023-04-09T07:34:55;102101.16;;;11.27;58.25
62600;BME280;48671;48.922;2.346;2023-04-09T07:37:21;102106.31;;;11.30;57.45
62600;BME280;48671;48.922;2.346;2023-04-09T07:39:47;102097.53;;;11.34;57.17
62600;BME280;48671;48.922;2.346;2023-04-09T07:42:13;102098.31;;;11.39;57.17
62600;BME280;48671;48.922;2.346;2023-04-09T07:44:38;102097.16;;;11.53;56.92
62600;BME280;48671;48.922;2.346;2023-04-09T07:47:05;102096.06;;;11.64;57.09
62600;BME280;48671;48.922;2.346;2023-04-09T07:49:31;102101.13;;;11.70;56.94
62600;BME280;48671;48.922;2.346;2023-04-09T07:51:58;102101.84;;;11.79;56.36
62600;BME280;48671;48.922;2.346;2023-04-09T07:54:23;102102.53;;;11.88;56.46
62600;BME280;48671;48.922;2.346;2023-04-09T07:56:49;102101.50;;;11.95;56.59
62600;BME280;48671;48.922;2.346;2023-04-09T07:59:14;102096.06;;;12.05;56.24
62600;BME280;48671;48.922;2.346;2023-04-09T08:01:40;102091.47;;;12.16;55.67
62600;BME280;48671;48.922;2.346;2023-04-09T08:04:05;102100.66;;;12.32;55.54
62600;BME280;48671;48.922;2.346;2023-04-09T08:06:31;102090.53;;;12.56;55.24
62600;BME280;48671;48.922;2.346;2023-04-09T08:08:56;102105.81;;;13.04;54.39
62600;BME280;48671;48.922;2.346;2023-04-09T08:11:21;102096.59;;;13.54;53.38
62600;BME280;48671;48.922;2.346;2023-04-09T08:13:52;102104.69;;;14.04;52.15
62600;BME280;48671;48.922;2.346;2023-04-09T08:16:18;102097.31;;;14.44;51.29
62600;BME280;48671;48.922;2.346;2023-04-09T08:18:45;102097.66;;;14.86;50.77
62600;BME280;48671;48.922;2.346;2023-04-09T08:21:10;102097.19;;;15.25;49.43
62600;BME280;48671;48.922;2.346;2023-04-09T08:23:35;102103.13;;;15.54;48.96
62600;BME280;48671;48.922;2.346;2023-04-09T08:26:02;102104.06;;;15.76;48.85
62600;BME280;48671;48.922;2.346;2023-04-09T08:28:27;102104.91;;;15.99;48.10
62600;BME280;48671;48.922;2.346;2023-04-09T08:30:52;102096.44;;;16.14;47.82
62600;BME280;48671;48.922;2.346;2023-04-09T08:33:18;102088.06;;;16.26;47.41
62600;BME280;48671;48.922;2.346;2023-04-09T08:35:43;102092.72;;;16.42;47.28
62600;BME280;48671;48.922;2.346;2023-04-09T08:38:08;102083.06;;;16.42;46.91
62600;BME280;48671;48.922;2.346;2023-04-09T08:40:34;102088.22;;;16.44;47.54
62600;BME280;48671;48.922;2.346;2023-04-09T08:43:04;102082.59;;;16.53;47.66
62600;BME280;48671;48.922;2.346;2023-04-09T08:45:30;102086.03;;;16.55;46.72
62600;BME280;48671;48.922;2.346;2023-04-09T08:47:55;102079.25;;;16.49;46.54
62600;BME280;48671;48.922;2.346;2023-04-09T08:50:24;102086.28;;;16.49;47.09
62600;BME280;48671;48.922;2.346;2023-04-09T08:52:50;102082.94;;;16.45;46.50
62600;BME280;48671;48.922;2.346;2023-04-09T08:55:15;102080.91;;;16.52;46.83
62600;BME280;48671;48.922;2.346;2023-04-09T08:57:42;102080.91;;;16.52;46.59
62600;BME280;48671;48.922;2.346;2023-04-09T09:00:08;102075.78;;;16.49;46.58
62600;BME280;48671;48.922;2.346;2023-04-09T09:02:34;102077.06;;;16.38;46.13
62600;BME280;48671;48.922;2.346;2023-04-09T09:04:59;102063.38;;;16.30;46.46
62600;BME280;48671;48.922;2.346;2023-04-09T09:07:29;102066.13;;;16.27;46.22
62600;BME280;48671;48.922;2.346;2023-04-09T09:09:58;102063.06;;;16.38;46.79
62600;BME280;48671;48.922;2.346;2023-04-09T09:12:31;102059.59;;;16.37;45.63
62600;BME280;48671;48.922;2.346;2023-04-09T09:14:57;102063.00;;;16.39;46.41
62600;BME280;48671;48.922;2.346;2023-04-09T09:17:22;102054.19;;;16.41;46.30
62600;BME280;48671;48.922;2.346;2023-04-09T09:19:47;102052.50;;;16.39;46.34
62600;BME280;48671;48.922;2.346;2023-04-09T09:22:13;102056.53;;;16.48;46.85
62600;BME280;48671;48.922;2.346;2023-04-09T09:24:49;102055.66;;;16.48;46.72
62600;BME280;48671;48.922;2.346;2023-04-09T09:27:35;102055.28;;;16.57;46.62
62600;BME280;48671;48.922;2.346;2023-04-09T09:30:02;102050.28;;;16.51;46.87
62600;BME280;48671;48.922;2.346;2023-04-09T09:32:28;102055.34;;;16.55;46.86
62600;BME280;48671;48.922;2.346;2023-04-09T09:35:06;102050.72;;;16.60;46.13
62600;BME280;48671;48.922;2.346;2023-04-09T09:37:32;102040.63;;;16.72;46.04
62600;BME280;48671;48.922;2.346;2023-04-09T09:39:59;102048.66;;;16.89;46.11
62600;BME280;48671;48.922;2.346;2023-04-09T09:42:24;102053.31;;;17.03;44.62
62600;BME280;48671;48.922;2.346;2023-04-09T09:44:53;102042.72;;;17.04;45.41
62600;BME280;48671;48.922;2.346;2023-04-09T09:47:20;102027.13;;;17.20;45.53
62600;BME280;48671;48.922;2.346;2023-04-09T09:49:50;102032.88;;;17.28;43.66
62600;BME280;48671;48.922;2.346;2023-04-09T09:52:23;102031.66;;;17.36;44.90
62600;BME280;48671;48.922;2.346;2023-04-09T09:54:51;102028.69;;;17.43;44.11
62600;BME280;48671;48.922;2.346;2023-04-09T09:57:18;102040.41;;;17.55;44.40
62600;BME280;48671;48.922;2.346;2023-04-09T09:59:54;102017.97;;;17.65;43.59
62600;BME280;48671;48.922;2.346;2023-04-09T10:02:22;102020.72;;;17.83;43.20
62600;BME280;48671;48.922;2.346;2023-04-09T10:04:49;102019.94;;;17.98;43.60
62600;BME280;48671;48.922;2.346;2023-04-09T10:07:18;102018.25;;;18.14;42.53
62600;BME280;48671;48.922;2.346;2023-04-09T10:09:48;102023.78;;;18.10;42.46
62600;BME280;48671;48.922;2.346;2023-04-09T10:12:15;102018.06;;;18.19;41.63
62600;BME280;48671;48.922;2.346;2023-04-09T10:14:41;102015.03;;;18.27;42.22
62600;BME280;48671;48.922;2.346;2023-04-09T10:17:06;102002.94;;;18.40;43.08
62600;BME280;48671;48.922;2.346;2023-04-09T10:19:37;102012.06;;;18.50;41.22
62600;BME280;48671;48.922;2.346;2023-04-09T10:22:09;102000.19;;;18.59;41.69
62600;BME280;48671;48.922;2.346;2023-04-09T10:24:35;102013.59;;;18.71;40.56
62600;BME280;48671;48.922;2.346;2023-04-09T10:27:11;102008.78;;;18.80;40.43
62600;BME280;48671;48.922;2.346;2023-04-09T10:29:45;102007.47;;;18.88;40.23
62600;BME280;48671;48.922;2.346;2023-04-09T10:32:11;101999.91;;;18.98;39.96
62600;BME280;48671;48.922;2.346;2023-04-09T10:34:41;101997.38;;;18.97;37.19
62600;BME280;48671;48.922;2.346;2023-04-09T10:37:08;102013.91;;;18.83;39.25
62600;BME280;48671;48.922;2.346;2023-04-09T10:39:38;102012.84;;;18.87;39.17
62600;BME280;48671;48.922;2.346;2023-04-09T10:42:18;101997.00;;;18.87;37.97
62600;BME280;48671;48.922;2.346;2023-04-09T10:47:33;101994.69;;;18.81;37.19
62600;BME280;48671;48.922;2.346;2023-04-09T10:50:25;101995.81;;;18.92;37.35
62600;BME280;48671;48.922;2.346;2023-04-09T10:52:55;101989.53;;;18.95;37.65
62600;BME280;48671;48.922;2.346;2023-04-09T10:55:41;101983.94;;;19.01;36.59
62600;BME280;48671;48.922;2.346;2023-04-09T10:58:12;101985.91;;;19.13;36.98
62600;BME280;48671;48.922;2.346;2023-04-09T11:00:39;101968.03;;;19.18;37.40
62600;BME280;48671;48.922;2.346;2023-04-09T11:05:38;101992.47;;;19.70;35.95
62600;BME280;48671;48.922;2.346;2023-04-09T11:10:34;101976.34;;;19.90;35.66
62600;BME280;48671;48.922;2.346;2023-04-09T11:13:00;101987.53;;;20.09;35.87
62600;BME280;48671;48.922;2.346;2023-04-09T11:15:26;101965.59;;;19.93;34.84
62600;BME280;48671;48.922;2.346;2023-04-09T11:17:51;101967.84;;;19.85;36.26
62600;BME280;48671;48.922;2.346;2023-04-09T11:20:20;101970.09;;;19.91;35.37
62600;BME280;48671;48.922;2.346;2023-04-09T11:22:46;101967.84;;;19.85;34.60
62600;BME280;48671;48.922;2.346;2023-04-09T11:25:20;101979.75;;;19.92;34.94
62600;BME280;48671;48.922;2.346;2023-04-09T11:27:46;101953.06;;;19.97;35.17
62600;BME280;48671;48.922;2.346;2023-04-09T11:30:12;101964.84;;;20.21;34.74
62600;BME280;48671;48.922;2.346;2023-04-09T11:32:38;101935.09;;;20.18;35.06
62600;BME280;48671;48.922;2.346;2023-04-09T11:35:04;101947.69;;;20.43;34.62
62600;BME280;48671;48.922;2.346;2023-04-09T11:37:29;101955.34;;;20.47;33.22
62600;BME280;48671;48.922;2.346;2023-04-09T11:39:55;101949.78;;;20.52;33.65
62600;BME280;48671;48.922;2.346;2023-04-09T11:42:22;101962.84;;;20.84;34.08
62600;BME280;48671;48.922;2.346;2023-04-09T11:44:49;101955.72;;;21.13;34.43
62600;BME280;48671;48.922;2.346;2023-04-09T11:47:16;101953.88;;;21.27;33.83
62600;BME280;48671;48.922;2.346;2023-04-09T11:49:43;101948.91;;;21.09;34.03
62600;BME280;48671;48.922;2.346;2023-04-09T11:52:09;101959.09;;;21.15;33.41
62600;BME280;48671;48.922;2.346;2023-04-09T11:54:35;101961.81;;;21.27;33.62
62600;BME280;48671;48.922;2.346;2023-04-09T11:57:03;101957.28;;;21.30;32.95
62600;BME280;48671;48.922;2.346;2023-04-09T11:59:29;101947.63;;;21.43;32.99
62600;BME280;48671;48.922;2.346;2023-04-09T12:01:58;101949.22;;;21.72;31.88
62600;BME280;48671;48.922;2.346;2023-04-09T12:04:24;101954.81;;;21.68;31.88
62600;BME280;48671;48.922;2.346;2023-04-09T12:06:49;101951.75;;;21.74;32.28
62600;BME280;48671;48.922;2.346;2023-04-09T12:09:15;101951.91;;;21.85;32.01
62600;BME280;48671;48.922;2.346;2023-04-09T12:11:44;101956.69;;;21.93;32.02
62600;BME280;48671;48.922;2.346;2023-04-09T12:14:14;101951.06;;;21.58;31.42
62600;BME280;48671;48.922;2.346;2023-04-09T12:16:43;101945.47;;;21.21;31.27
62600;BME280;48671;48.922;2.346;2023-04-09T12:19:10;101951.53;;;21.37;32.84
62600;BME280;48671;48.922;2.346;2023-04-09T12:24:15;101939.09;;;21.52;31.68
62600;BME280;48671;48.922;2.346;2023-04-09T12:26:42;101936.75;;;21.74;31.49
62600;BME280;48671;48.922;2.346;2023-04-09T12:29:07;101922.25;;;21.93;31.90
62600;BME280;48671;48.922;2.346;2023-04-09T12:31:33;101930.16;;;22.33;31.70
62600;BME280;48671;48.922;2.346;2023-04-09T12:33:58;101912.56;;;22.32;30.05
62600;BME280;48671;48.922;2.346;2023-04-09T12:36:23;101936.94;;;22.50;29.79
62600;BME280;48671;48.922;2.346;2023-04-09T12:38:49;101929.09;;;22.35;30.70
62600;BME280;48671;48.922;2.346;2023-04-09T12:41:15;101933.22;;;22.27;31.17
62600;BME280;48671;48.922;2.346;2023-04-09T12:43:40;101930.34;;;22.17;30.89
62600;BME280;48671;48.922;2.346;2023-04-09T12:46:08;101915.53;;;21.74;30.89
62600;BME280;48671;48.922;2.346;2023-04-09T12:48:33;101918.31;;;21.46;31.01
62600;BME280;48671;48.922;2.346;2023-04-09T12:50:59;101912.75;;;21.22;30.94
62600;BME280;48671;48.922;2.346;2023-04-09T12:53:24;101925.66;;;21.14;31.53
62600;BME280;48671;48.922;2.346;2023-04-09T12:55:50;101905.94;;;21.32;31.06
62600;BME280;48671;48.922;2.346;2023-04-09T12:58:15;101901.22;;;21.77;30.92
62600;BME280;48671;48.922;2.346;2023-04-09T13:00:41;101914.91;;;22.24;31.02
62600;BME280;48671;48.922;2.346;2023-04-09T13:03:06;101908.50;;;22.64;30.17
62600;BME280;48671;48.922;2.346;2023-04-09T13:05:31;101903.13;;;22.90;29.41